sensor_id;sensor_type;location;lat;lon;timestamp;pressure;altitude;pressure_sealevel;temperature;humidity
67803;BME280;54601;51.378;-1.342;2023-06-19T00:00:32;99535.87;;;23.13;36.08
67803;BME280;54601;51.378;-1.342;2023-06-19T00:02:57;99539.69;;;22.84;35.99
67803;BME280;54601;51.378;-1.342;2023-06-19T00:05:23;99540.35;;;22.82;36.30
67803;BME280;54601;51.378;-1.342;2023-06-19T00:07:48;99537.16;;;22.89;36.28
67803;BME280;54601;51.378;-1.342;2023-06-19T00:10:14;99537.88;;;23.16;36.00
67803;BME280;54601;51.378;-1.342;2023-06-19T00:12:39;99540.65;;;22.87;36.33
67803;BME280;54601;51.378;-1.342;2023-06-19T00:15:05;99540.90;;;23.23;35.64
67803;BME280;54601;51.378;-1.342;2023-06-19T00:17:30;99543.25;;;22.94;36.16
67803;BME280;54601;51.378;-1.342;2023-06-19T00:19:55;99543.79;;;22.68;35.98
67803;BME280;54601;51.378;-1.342;2023-06-19T00:22:20;99545.84;;;23.27;36.24
67803;BME280;54601;51.378;-1.342;2023-06-19T00:24:46;99546.86;;;22.78;36.18
67803;BME280;54601;51.378;-1.342;2023-06-19T00:27:11;99546.39;;;22.88;36.19
67803;BME280;54601;51.378;-1.342;2023-06-19T00:29:36;99547.27;;;23.09;36.09
67803;BME280;54601;51.378;-1.342;2023-06-19T00:32:02;99552.42;;;23.11;36.16
67803;BME280;54601;51.378;-1.342;2023-06-19T00:34:29;99553.70;;;23.21;36.27
67803;BME280;54601;51.378;-1.342;2023-06-19T00:36:52;99551.07;;;22.58;36.51
67803;BME280;54601;51.378;-1.342;2023-06-19T00:39:17;99554.88;;;22.67;36.33
67803;BME280;54601;51.378;-1.342;2023-06-19T00:41:43;99554.06;;;22.81;36.08
67803;BME280;54601;51.378;-1.342;2023-06-19T00:44:08;99553.55;;;22.96;36.08
67803;BME280;54601;51.378;-1.342;2023-06-19T00:46:36;99558.97;;;22.90;35.96
67803;BME280;54601;51.378;-1.342;2023-06-19T00:48:59;99564.71;;;22.77;36.17
67803;BME280;54601;51.378;-1.342;2023-06-19T00:51:24;99566.04;;;22.64;36.34
67803;BME280;54601;51.378;-1.342;2023-06-19T00:53:50;99565.68;;;22.71;36.21
67803;BME280;54601;51.378;-1.342;2023-06-19T00:56:15;99566.91;;;22.79;36.38
67803;BME280;54601;51.378;-1.342;2023-06-19T00:58:40;99569.44;;;22.65;36.21
67803;BME280;54601;51.378;-1.342;2023-06-19T01:01:06;99566.64;;;22.51;36.44
67803;BME280;54601;51.378;-1.342;2023-06-19T01:03:31;99567.22;;;22.50;36.37
67803;BME280;54601;51.378;-1.342;2023-06-19T01:05:58;99569.57;;;22.08;36.56
67803;BME280;54601;51.378;-1.342;2023-06-19T01:08:36;99568.96;;;22.34;36.65
67803;BME280;54601;51.378;-1.342;2023-06-19T01:10:53;99568.84;;;22.30;36.60
67803;BME280;54601;51.378;-1.342;2023-06-19T01:13:19;99568.98;;;22.49;36.27
67803;BME280;54601;51.378;-1.342;2023-06-19T01:15:39;99568.85;;;22.24;36.67
67803;BME280;54601;51.378;-1.342;2023-06-19T01:18:04;99568.47;;;22.22;36.64
67803;BME280;54601;51.378;-1.342;2023-06-19T01:20:30;99569.53;;;22.36;36.51
67803;BME280;54601;51.378;-1.342;2023-06-19T01:22:55;99569.36;;;22.38;36.40
67803;BME280;54601;51.378;-1.342;2023-06-19T01:25:20;99570.81;;;22.47;36.25
67803;BME280;54601;51.378;-1.342;2023-06-19T01:27:45;99568.22;;;22.58;36.34
67803;BME280;54601;51.378;-1.342;2023-06-19T01:30:12;99569.18;;;22.77;36.50
67803;BME280;54601;51.378;-1.342;2023-06-19T01:32:44;99570.33;;;22.48;36.46
67803;BME280;54601;51.378;-1.342;2023-06-19T01:35:02;99569.18;;;22.28;36.39
67803;BME280;54601;51.378;-1.342;2023-06-19T01:37:27;99565.43;;;22.69;36.43
67803;BME280;54601;51.378;-1.342;2023-06-19T01:39:52;99565.50;;;22.20;36.51
67803;BME280;54601;51.378;-1.342;2023-06-19T01:42:18;99565.64;;;22.23;36.45
67803;BME280;54601;51.378;-1.342;2023-06-19T01:44:43;99563.89;;;22.61;36.47
67803;BME280;54601;51.378;-1.342;2023-06-19T01:47:10;99565.96;;;22.50;36.40
67803;BME280;54601;51.378;-1.342;2023-06-19T01:49:33;99565.81;;;22.21;36.38
67803;BME280;54601;51.378;-1.342;2023-06-19T01:51:58;99564.40;;;22.31;36.35
67803;BME280;54601;51.378;-1.342;2023-06-19T01:54:24;99562.99;;;22.46;36.33
67803;BME280;54601;51.378;-1.342;2023-06-19T01:56:49;99563.79;;;22.47;36.34
67803;BME280;54601;51.378;-1.342;2023-06-19T01:59:15;99562.05;;;22.38;36.40
67803;BME280;54601;51.378;-1.342;2023-06-19T02:01:40;99561.15;;;22.66;36.41
67803;BME280;54601;51.378;-1.342;2023-06-19T02:04:05;99561.66;;;22.59;36.37
67803;BME280;54601;51.378;-1.342;2023-06-19T02:06:31;99563.09;;;22.42;36.49
67803;BME280;54601;51.378;-1.342;2023-06-19T02:08:56;99564.22;;;22.61;36.28
67803;BME280;54601;51.378;-1.342;2023-06-19T02:11:22;99563.74;;;22.38;36.59
67803;BME280;54601;51.378;-1.342;2023-06-19T02:13:47;99560.79;;;22.17;36.49
67803;BME280;54601;51.378;-1.342;2023-06-19T02:16:12;99560.99;;;22.41;36.51
67803;BME280;54601;51.378;-1.342;2023-06-19T02:18:38;99559.03;;;22.50;36.31
67803;BME280;54601;51.378;-1.342;2023-06-19T02:21:03;99561.72;;;22.75;36.10
67803;BME280;54601;51.378;-1.342;2023-06-19T02:23:29;99561.93;;;22.05;36.43
67803;BME280;54601;51.378;-1.342;2023-06-19T02:25:54;99564.34;;;22.48;36.30
67803;BME280;54601;51.378;-1.342;2023-06-19T02:28:19;99566.69;;;22.38;36.46
67803;BME280;54601;51.378;-1.342;2023-06-19T02:30:44;99567.64;;;22.23;36.63
67803;BME280;54601;51.378;-1.342;2023-06-19T02:33:10;99568.00;;;22.03;36.55
67803;BME280;54601;51.378;-1.342;2023-06-19T02:35:35;99570.01;;;22.36;36.46
67803;BME280;54601;51.378;-1.342;2023-06-19T02:38:00;99572.19;;;22.25;36.54
67803;BME280;54601;51.378;-1.342;2023-06-19T02:40:26;99573.55;;;22.31;36.37
67803;BME280;54601;51.378;-1.342;2023-06-19T02:42:51;99572.53;;;22.21;36.56
67803;BME280;54601;51.378;-1.342;2023-06-19T02:45:16;99574.02;;;21.89;36.39
67803;BME280;54601;51.378;-1.342;2023-06-19T02:47:42;99574.02;;;22.12;36.71
67803;BME280;54601;51.378;-1.342;2023-06-19T02:50:07;99577.79;;;22.19;36.61
67803;BME280;54601;51.378;-1.342;2023-06-19T02:52:32;99581.64;;;22.25;36.45
67803;BME280;54601;51.378;-1.342;2023-06-19T02:54:58;99585.86;;;22.19;36.50
67803;BME280;54601;51.378;-1.342;2023-06-19T02:57:23;99589.80;;;22.25;36.39
67803;BME280;54601;51.378;-1.342;2023-06-19T02:59:49;99593.95;;;22.45;36.15
67803;BME280;54601;51.378;-1.342;2023-06-19T03:02:14;99596.99;;;22.31;36.22
67803;BME280;54601;51.378;-1.342;2023-06-19T03:04:40;99599.01;;;21.72;36.44
67803;BME280;54601;51.378;-1.342;2023-06-19T03:07:05;99602.83;;;22.06;36.56
67803;BME280;54601;51.378;-1.342;2023-06-19T03:09:30;99603.74;;;21.76;36.33
67803;BME280;54601;51.378;-1.342;2023-06-19T03:11:55;99603.57;;;22.09;36.44
67803;BME280;54601;51.378;-1.342;2023-06-19T03:14:21;99604.32;;;22.24;36.29
67803;BME280;54601;51.378;-1.342;2023-06-19T03:16:46;99604.32;;;22.04;36.58
67803;BME280;54601;51.378;-1.342;2023-06-19T03:19:11;99607.88;;;22.12;36.32
67803;BME280;54601;51.378;-1.342;2023-06-19T03:21:37;99608.28;;;22.16;36.21
67803;BME280;54601;51.378;-1.342;2023-06-19T03:24:02;99618.32;;;22.20;36.28
67803;BME280;54601;51.378;-1.342;2023-06-19T03:26:27;99624.74;;;21.92;36.55
67803;BME280;54601;51.378;-1.342;2023-06-19T03:28:53;99629.54;;;22.00;36.49
67803;BME280;54601;51.378;-1.342;2023-06-19T03:31:18;99627.55;;;21.93;36.54
67803;BME280;54601;51.378;-1.342;2023-06-19T03:33:43;99628.89;;;21.82;36.68
67803;BME280;54601;51.378;-1.342;2023-06-19T03:36:09;99629.53;;;22.16;36.58
67803;BME280;54601;51.378;-1.342;2023-06-19T03:38:34;99633.80;;;21.85;36.62
67803;BME280;54601;51.378;-1.342;2023-06-19T03:41:00;99633.93;;;21.56;36.63
67803;BME280;54601;51.378;-1.342;2023-06-19T03:43:25;99637.82;;;21.91;36.53
67803;BME280;54601;51.378;-1.342;2023-06-19T03:45:50;99640.12;;;21.85;36.53
67803;BME280;54601;51.378;-1.342;2023-06-19T03:48:16;99642.19;;;21.85;36.48
67803;BME280;54601;51.378;-1.342;2023-06-19T03:50:41;99643.74;;;22.14;36.09
67803;BME280;54601;51.378;-1.342;2023-06-19T03:53:06;99647.12;;;21.95;36.34
67803;BME280;54601;51.378;-1.342;2023-06-19T03:55:32;99651.23;;;22.09;36.19
67803;BME280;54601;51.378;-1.342;2023-06-19T03:57:57;99650.52;;;22.01;36.22
67803;BME280;54601;51.378;-1.342;2023-06-19T04:00:22;99650.44;;;21.93;36.06
67803;BME280;54601;51.378;-1.342;2023-06-19T04:02:48;99652.30;;;22.03;36.08
67803;BME280;54601;51.378;-1.342;2023-06-19T04:05:13;99652.14;;;21.83;36.47
67803;BME280;54601;51.378;-1.342;2023-06-19T04:07:38;99652.25;;;21.90;36.30
67803;BME280;54601;51.378;-1.342;2023-06-19T04:10:05;99659.07;;;21.60;36.38
67803;BME280;54601;51.378;-1.342;2023-06-19T04:12:29;99662.20;;;21.78;36.43
67803;BME280;54601;51.378;-1.342;2023-06-19T04:14:55;99661.57;;;21.78;36.51
67803;BME280;54601;51.378;-1.342;2023-06-19T04:17:20;99663.19;;;22.16;36.32
67803;BME280;54601;51.378;-1.342;2023-06-19T04:19:45;99663.55;;;21.89;36.29
67803;BME280;54601;51.378;-1.342;2023-06-19T04:22:11;99659.37;;;22.01;36.10
67803;BME280;54601;51.378;-1.342;2023-06-19T04:24:36;99659.41;;;21.95;36.20
67803;BME280;54601;51.378;-1.342;2023-06-19T04:27:02;99663.87;;;21.74;36.36
67803;BME280;54601;51.378;-1.342;2023-06-19T04:29:27;99667.03;;;21.76;36.38
67803;BME280;54601;51.378;-1.342;2023-06-19T04:31:52;99672.50;;;21.85;36.34
67803;BME280;54601;51.378;-1.342;2023-06-19T04:34:18;99679.69;;;21.78;36.42
67803;BME280;54601;51.378;-1.342;2023-06-19T04:36:43;99687.55;;;21.80;36.31
67803;BME280;54601;51.378;-1.342;2023-06-19T04:39:08;99688.80;;;21.67;36.50
67803;BME280;54601;51.378;-1.342;2023-06-19T04:41:34;99689.57;;;21.76;36.44
67803;BME280;54601;51.378;-1.342;2023-06-19T04:43:59;99690.49;;;21.58;36.71
67803;BME280;54601;51.378;-1.342;2023-06-19T04:46:24;99686.55;;;21.84;36.29
67803;BME280;54601;51.378;-1.342;2023-06-19T04:48:50;99686.58;;;21.79;36.29
67803;BME280;54601;51.378;-1.342;2023-06-19T04:51:15;99689.41;;;21.83;36.25
67803;BME280;54601;51.378;-1.342;2023-06-19T04:53:41;99692.10;;;22.04;36.34
67803;BME280;54601;51.378;-1.342;2023-06-19T04:56:06;99693.47;;;21.72;36.46
67803;BME280;54601;51.378;-1.342;2023-06-19T04:58:32;99697.51;;;21.68;36.51
67803;BME280;54601;51.378;-1.342;2023-06-19T05:00:57;99694.36;;;21.61;36.61
67803;BME280;54601;51.378;-1.342;2023-06-19T05:03:22;99693.00;;;21.70;36.12
67803;BME280;54601;51.378;-1.342;2023-06-19T05:05:48;99691.12;;;22.15;36.13
67803;BME280;54601;51.378;-1.342;2023-06-19T05:08:13;99687.38;;;21.69;36.32
67803;BME280;54601;51.378;-1.342;2023-06-19T05:10:39;99685.65;;;21.58;36.29
67803;BME280;54601;51.378;-1.342;2023-06-19T05:13:04;99685.77;;;21.82;36.18
67803;BME280;54601;51.378;-1.342;2023-06-19T05:15:29;99688.85;;;21.93;36.12
67803;BME280;54601;51.378;-1.342;2023-06-19T05:17:55;99692.87;;;21.96;36.09
67803;BME280;54601;51.378;-1.342;2023-06-19T05:20:20;99691.62;;;22.10;35.92
67803;BME280;54601;51.378;-1.342;2023-06-19T05:22:46;99698.31;;;21.97;36.11
67803;BME280;54601;51.378;-1.342;2023-06-19T05:25:11;99697.83;;;21.85;36.20
67803;BME280;54601;51.378;-1.342;2023-06-19T05:27:36;99698.00;;;21.83;36.15
67803;BME280;54601;51.378;-1.342;2023-06-19T05:30:02;99702.94;;;21.85;36.19
67803;BME280;54601;51.378;-1.342;2023-06-19T05:32:27;99701.07;;;21.75;36.31
67803;BME280;54601;51.378;-1.342;2023-06-19T05:34:52;99696.83;;;22.01;35.93
67803;BME280;54601;51.378;-1.342;2023-06-19T05:37:18;99696.82;;;21.77;36.35
67803;BME280;54601;51.378;-1.342;2023-06-19T05:39:43;99696.06;;;21.79;36.33
67803;BME280;54601;51.378;-1.342;2023-06-19T05:42:08;99700.38;;;21.94;36.05
67803;BME280;54601;51.378;-1.342;2023-06-19T05:44:34;99703.23;;;22.18;36.17
67803;BME280;54601;51.378;-1.342;2023-06-19T05:46:59;99702.55;;;21.89;36.09
67803;BME280;54601;51.378;-1.342;2023-06-19T05:49:24;99696.88;;;21.82;36.30
67803;BME280;54601;51.378;-1.342;2023-06-19T05:51:50;99692.11;;;21.83;36.24
67803;BME280;54601;51.378;-1.342;2023-06-19T05:54:15;99694.96;;;21.93;36.14
67803;BME280;54601;51.378;-1.342;2023-06-19T05:56:41;99690.11;;;22.25;36.01
67803;BME280;54601;51.378;-1.342;2023-06-19T05:59:06;99690.94;;;21.90;36.13
67803;BME280;54601;51.378;-1.342;2023-06-19T06:01:32;99691.00;;;22.23;35.72
67803;BME280;54601;51.378;-1.342;2023-06-19T06:03:57;99692.09;;;22.28;36.01
67803;BME280;54601;51.378;-1.342;2023-06-19T06:06:23;99691.35;;;21.89;36.12
67803;BME280;54601;51.378;-1.342;2023-06-19T06:08:47;99696.13;;;22.28;35.64
67803;BME280;54601;51.378;-1.342;2023-06-19T06:11:13;99695.63;;;22.10;35.80
67803;BME280;54601;51.378;-1.342;2023-06-19T06:13:38;99694.56;;;22.03;35.87
67803;BME280;54601;51.378;-1.342;2023-06-19T06:16:04;99689.84;;;22.30;35.57
67803;BME280;54601;51.378;-1.342;2023-06-19T06:18:29;99688.20;;;22.30;35.67
67803;BME280;54601;51.378;-1.342;2023-06-19T06:20:54;99691.95;;;22.13;35.81
67803;BME280;54601;51.378;-1.342;2023-06-19T06:23:20;99696.82;;;22.51;35.33
67803;BME280;54601;51.378;-1.342;2023-06-19T06:25:45;99692.03;;;22.75;35.02
67803;BME280;54601;51.378;-1.342;2023-06-19T06:28:10;99694.71;;;23.16;34.51
67803;BME280;54601;51.378;-1.342;2023-06-19T06:30:35;99694.03;;;23.29;34.34
67803;BME280;54601;51.378;-1.342;2023-06-19T06:33:01;99698.25;;;23.66;33.85
67803;BME280;54601;51.378;-1.342;2023-06-19T06:35:26;99703.07;;;23.74;33.65
67803;BME280;54601;51.378;-1.342;2023-06-19T06:37:51;99700.67;;;23.60;33.61
67803;BME280;54601;51.378;-1.342;2023-06-19T06:40:18;99703.00;;;24.11;33.17
67803;BME280;54601;51.378;-1.342;2023-06-19T06:42:42;99701.45;;;24.64;32.87
67803;BME280;54601;51.378;-1.342;2023-06-19T06:45:08;99702.40;;;24.41;32.59
67803;BME280;54601;51.378;-1.342;2023-06-19T06:47:34;99706.61;;;24.60;32.30
67803;BME280;54601;51.378;-1.342;2023-06-19T06:49:58;99708.54;;;24.93;31.82
67803;BME280;54601;51.378;-1.342;2023-06-19T06:52:24;99710.56;;;25.09;32.14
67803;BME280;54601;51.378;-1.342;2023-06-19T06:54:49;99710.83;;;25.04;31.95
67803;BME280;54601;51.378;-1.342;2023-06-19T06:57:14;99708.41;;;25.19;31.87
67803;BME280;54601;51.378;-1.342;2023-06-19T06:59:39;99700.28;;;25.29;31.77
67803;BME280;54601;51.378;-1.342;2023-06-19T07:02:05;99695.44;;;25.37;31.74
67803;BME280;54601;51.378;-1.342;2023-06-19T07:04:30;99692.15;;;25.38;31.80
67803;BME280;54601;51.378;-1.342;2023-06-19T07:06:56;99699.71;;;25.49;31.68
67803;BME280;54601;51.378;-1.342;2023-06-19T07:09:21;99704.81;;;25.52;31.73
67803;BME280;54601;51.378;-1.342;2023-06-19T07:11:47;99705.55;;;25.60;31.69
67803;BME280;54601;51.378;-1.342;2023-06-19T07:14:12;99709.87;;;25.72;31.55
67803;BME280;54601;51.378;-1.342;2023-06-19T07:16:37;99708.49;;;25.75;31.58
67803;BME280;54601;51.378;-1.342;2023-06-19T07:19:02;99712.23;;;25.58;31.51
67803;BME280;54601;51.378;-1.342;2023-06-19T07:21:28;99714.17;;;25.82;31.55
67803;BME280;54601;51.378;-1.342;2023-06-19T07:23:53;99715.14;;;25.63;31.43
67803;BME280;54601;51.378;-1.342;2023-06-19T07:26:18;99714.21;;;25.90;31.47
67803;BME280;54601;51.378;-1.342;2023-06-19T07:28:44;99716.56;;;25.63;31.48
67803;BME280;54601;51.378;-1.342;2023-06-19T07:31:09;99720.49;;;25.91;31.54
67803;BME280;54601;51.378;-1.342;2023-06-19T07:33:34;99726.31;;;25.93;31.53
67803;BME280;54601;51.378;-1.342;2023-06-19T07:36:00;99721.54;;;25.77;31.51
67803;BME280;54601;51.378;-1.342;2023-06-19T07:38:25;99720.35;;;25.79;31.48
67803;BME280;54601;51.378;-1.342;2023-06-19T07:40:51;99725.86;;;26.11;31.38
67803;BME280;54601;51.378;-1.342;2023-06-19T07:43:16;99725.84;;;26.12;31.32
67803;BME280;54601;51.378;-1.342;2023-06-19T07:45:41;99727.43;;;25.77;31.41
67803;BME280;54601;51.378;-1.342;2023-06-19T07:48:06;99732.85;;;25.98;31.51
67803;BME280;54601;51.378;-1.342;2023-06-19T07:50:32;99739.19;;;25.66;31.56
67803;BME280;54601;51.378;-1.342;2023-06-19T07:52:57;99742.15;;;25.78;31.55
67803;BME280;54601;51.378;-1.342;2023-06-19T07:55:22;99737.93;;;25.63;31.63
67803;BME280;54601;51.378;-1.342;2023-06-19T07:57:47;99739.14;;;25.99;31.55
67803;BME280;54601;51.378;-1.342;2023-06-19T08:00:13;99737.90;;;25.74;31.65
67803;BME280;54601;51.378;-1.342;2023-06-19T08:02:38;99739.61;;;25.99;31.56
67803;BME280;54601;51.378;-1.342;2023-06-19T08:05:04;99744.46;;;25.80;31.49
67803;BME280;54601;51.378;-1.342;2023-06-19T08:07:29;99745.93;;;25.51;31.61
67803;BME280;54601;51.378;-1.342;2023-06-19T08:09:54;99747.32;;;25.76;31.64
67803;BME280;54601;51.378;-1.342;2023-06-19T08:12:20;99743.19;;;26.07;31.57
67803;BME280;54601;51.378;-1.342;2023-06-19T08:14:45;99747.82;;;25.86;31.61
67803;BME280;54601;51.378;-1.342;2023-06-19T08:17:10;99744.88;;;25.72;31.50
67803;BME280;54601;51.378;-1.342;2023-06-19T08:19:35;99750.98;;;25.99;31.51
67803;BME280;54601;51.378;-1.342;2023-06-19T08:22:00;99743.19;;;26.12;31.41
67803;BME280;54601;51.378;-1.342;2023-06-19T08:24:26;99755.32;;;26.14;31.37
67803;BME280;54601;51.378;-1.342;2023-06-19T08:26:51;99752.61;;;25.95;31.31
67803;BME280;54601;51.378;-1.342;2023-06-19T08:29:17;99752.21;;;26.15;31.33
67803;BME280;54601;51.378;-1.342;2023-06-19T08:31:42;99753.30;;;26.20;31.36
67803;BME280;54601;51.378;-1.342;2023-06-19T08:34:07;99749.38;;;26.23;31.40
67803;BME280;54601;51.378;-1.342;2023-06-19T08:36:33;99749.89;;;26.21;31.41
67803;BME280;54601;51.378;-1.342;2023-06-19T08:38:58;99746.86;;;26.53;31.35
67803;BME280;54601;51.378;-1.342;2023-06-19T08:41:23;99748.32;;;26.34;31.33
67803;BME280;54601;51.378;-1.342;2023-06-19T08:43:48;99743.96;;;26.18;31.25
67803;BME280;54601;51.378;-1.342;2023-06-19T08:46:16;99744.95;;;26.18;31.29
67803;BME280;54601;51.378;-1.342;2023-06-19T08:48:39;99749.57;;;26.23;31.29
67803;BME280;54601;51.378;-1.342;2023-06-19T08:51:05;99752.30;;;26.36;31.06
67803;BME280;54601;51.378;-1.342;2023-06-19T08:53:36;99740.82;;;26.32;31.18
67803;BME280;54601;51.378;-1.342;2023-06-19T08:55:55;99741.11;;;26.31;31.15
67803;BME280;54601;51.378;-1.342;2023-06-19T08:58:21;99741.72;;;26.33;31.21
67803;BME280;54601;51.378;-1.342;2023-06-19T09:00:47;99741.05;;;26.60;31.20
67803;BME280;54601;51.378;-1.342;2023-06-19T09:03:11;99746.01;;;26.40;31.19
67803;BME280;54601;51.378;-1.342;2023-06-19T09:05:41;99745.55;;;26.62;31.23
67803;BME280;54601;51.378;-1.342;2023-06-19T09:08:01;99745.96;;;26.49;31.11
67803;BME280;54601;51.378;-1.342;2023-06-19T09:10:27;99749.24;;;26.51;31.13
67803;BME280;54601;51.378;-1.342;2023-06-19T09:12:57;99753.54;;;26.57;31.10
67803;BME280;54601;51.378;-1.342;2023-06-19T09:15:17;99747.19;;;26.63;31.02
67803;BME280;54601;51.378;-1.342;2023-06-19T09:17:43;99751.45;;;26.64;31.05
67803;BME280;54601;51.378;-1.342;2023-06-19T09:20:08;99748.97;;;26.67;31.03
67803;BME280;54601;51.378;-1.342;2023-06-19T09:22:33;99746.11;;;26.67;31.05
67803;BME280;54601;51.378;-1.342;2023-06-19T09:25:00;99749.08;;;26.75;30.99
67803;BME280;54601;51.378;-1.342;2023-06-19T09:27:24;99744.93;;;27.00;30.96
67803;BME280;54601;51.378;-1.342;2023-06-19T09:29:50;99755.15;;;26.82;30.93
67803;BME280;54601;51.378;-1.342;2023-06-19T09:32:16;99752.86;;;26.90;30.89
67803;BME280;54601;51.378;-1.342;2023-06-19T09:34:40;99753.50;;;26.91;30.88
67803;BME280;54601;51.378;-1.342;2023-06-19T09:37:06;99753.33;;;26.92;30.89
67803;BME280;54601;51.378;-1.342;2023-06-19T09:39:31;99755.05;;;26.92;30.86
67803;BME280;54601;51.378;-1.342;2023-06-19T09:41:56;99764.33;;;26.65;30.88
67803;BME280;54601;51.378;-1.342;2023-06-19T09:44:22;99761.90;;;26.92;30.86
67803;BME280;54601;51.378;-1.342;2023-06-19T09:46:47;99759.84;;;26.76;31.00
67803;BME280;54601;51.378;-1.342;2023-06-19T09:49:12;99768.02;;;26.50;31.00
67803;BME280;54601;51.378;-1.342;2023-06-19T09:51:41;99765.23;;;26.75;31.00
67803;BME280;54601;51.378;-1.342;2023-06-19T09:54:03;99760.96;;;26.39;31.10
67803;BME280;54601;51.378;-1.342;2023-06-19T09:56:28;99761.67;;;26.41;31.15
67803;BME280;54601;51.378;-1.342;2023-06-19T09:58:56;99763.71;;;26.69;31.17
67803;BME280;54601;51.378;-1.342;2023-06-19T10:01:19;99765.32;;;26.77;31.07
67803;BME280;54601;51.378;-1.342;2023-06-19T10:03:44;99756.05;;;26.76;31.08
67803;BME280;54601;51.378;-1.342;2023-06-19T10:06:13;99752.88;;;26.81;31.09
67803;BME280;54601;51.378;-1.342;2023-06-19T10:08:40;99752.28;;;26.88;30.99
67803;BME280;54601;51.378;-1.342;2023-06-19T10:11:00;99761.45;;;26.88;31.04
67803;BME280;54601;51.378;-1.342;2023-06-19T10:13:31;99752.72;;;26.93;30.98
67803;BME280;54601;51.378;-1.342;2023-06-19T10:15:51;99760.15;;;26.91;31.01
67803;BME280;54601;51.378;-1.342;2023-06-19T10:18:17;99757.78;;;26.99;30.94
67803;BME280;54601;51.378;-1.342;2023-06-19T10:20:42;99754.10;;;27.05;30.89
67803;BME280;54601;51.378;-1.342;2023-06-19T10:23:12;99758.15;;;27.02;30.94
67803;BME280;54601;51.378;-1.342;2023-06-19T10:25:34;99752.12;;;26.79;30.90
67803;BME280;54601;51.378;-1.342;2023-06-19T10:27:58;99752.14;;;27.31;30.88
67803;BME280;54601;51.378;-1.342;2023-06-19T10:30:23;99758.56;;;27.07;30.91
67803;BME280;54601;51.378;-1.342;2023-06-19T10:32:48;99759.30;;;27.04;30.95
67803;BME280;54601;51.378;-1.342;2023-06-19T10:35:15;99756.61;;;27.04;30.96
67803;BME280;54601;51.378;-1.342;2023-06-19T10:37:39;99762.14;;;26.71;31.00
67803;BME280;54601;51.378;-1.342;2023-06-19T10:40:05;99764.92;;;27.02;30.97
67803;BME280;54601;51.378;-1.342;2023-06-19T10:42:29;99761.20;;;27.01;31.03
67803;BME280;54601;51.378;-1.342;2023-06-19T10:45:01;99760.32;;;26.97;31.06
67803;BME280;54601;51.378;-1.342;2023-06-19T10:47:20;99761.70;;;27.01;31.02
67803;BME280;54601;51.378;-1.342;2023-06-19T10:49:45;99759.43;;;27.05;30.97
67803;BME280;54601;51.378;-1.342;2023-06-19T10:52:11;99755.54;;;27.05;30.97
67803;BME280;54601;51.378;-1.342;2023-06-19T10:54:36;99747.37;;;26.74;31.01
67803;BME280;54601;51.378;-1.342;2023-06-19T10:57:04;99748.40;;;26.78;30.97
67803;BME280;54601;51.378;-1.342;2023-06-19T10:59:27;99746.21;;;27.03;30.99
67803;BME280;54601;51.378;-1.342;2023-06-19T11:01:52;99744.69;;;27.02;31.01
67803;BME280;54601;51.378;-1.342;2023-06-19T11:04:17;99743.62;;;27.01;31.01
67803;BME280;54601;51.378;-1.342;2023-06-19T11:06:44;99739.09;;;27.01;31.00
67803;BME280;54601;51.378;-1.342;2023-06-19T11:09:09;99737.80;;;26.74;31.01
67803;BME280;54601;51.378;-1.342;2023-06-19T11:11:37;99734.64;;;27.00;31.01
67803;BME280;54601;51.378;-1.342;2023-06-19T11:13:59;99732.68;;;26.73;31.02
67803;BME280;54601;51.378;-1.342;2023-06-19T11:16:24;99737.85;;;26.96;31.04
67803;BME280;54601;51.378;-1.342;2023-06-19T11:18:49;99735.37;;;26.99;31.01
67803;BME280;54601;51.378;-1.342;2023-06-19T11:21:15;99738.25;;;26.97;31.04
67803;BME280;54601;51.378;-1.342;2023-06-19T11:23:40;99742.23;;;27.00;31.00
67803;BME280;54601;51.378;-1.342;2023-06-19T11:26:06;99731.31;;;26.70;31.04
67803;BME280;54601;51.378;-1.342;2023-06-19T11:28:31;99729.80;;;26.94;31.05
67803;BME280;54601;51.378;-1.342;2023-06-19T11:30:58;99730.42;;;26.93;31.05
67803;BME280;54601;51.378;-1.342;2023-06-19T11:33:22;99724.29;;;26.93;31.06
67803;BME280;54601;51.378;-1.342;2023-06-19T11:35:47;99723.82;;;26.95;31.08
67803;BME280;54601;51.378;-1.342;2023-06-19T11:38:17;99725.78;;;26.97;31.01
67803;BME280;54601;51.378;-1.342;2023-06-19T11:40:39;99728.20;;;26.99;30.98
67803;BME280;54601;51.378;-1.342;2023-06-19T11:43:03;99721.57;;;26.92;31.05
67803;BME280;54601;51.378;-1.342;2023-06-19T11:45:28;99724.86;;;26.93;31.05
67803;BME280;54601;51.378;-1.342;2023-06-19T11:47:54;99718.11;;;26.92;31.06
67803;BME280;54601;51.378;-1.342;2023-06-19T11:50:19;99718.38;;;26.90;31.07
67803;BME280;54601;51.378;-1.342;2023-06-19T11:52:44;99717.60;;;26.92;31.02
67803;BME280;54601;51.378;-1.342;2023-06-19T11:55:09;99721.32;;;26.92;31.03
67803;BME280;54601;51.378;-1.342;2023-06-19T11:57:35;99722.42;;;26.94;31.01
67803;BME280;54601;51.378;-1.342;2023-06-19T12:00:00;99720.56;;;26.90;31.04
67803;BME280;54601;51.378;-1.342;2023-06-19T12:02:26;99723.54;;;26.89;31.06
67803;BME280;54601;51.378;-1.342;2023-06-19T12:04:51;99728.37;;;26.85;31.13
67803;BME280;54601;51.378;-1.342;2023-06-19T12:07:16;99721.41;;;26.36;31.11
67803;BME280;54601;51.378;-1.342;2023-06-19T12:09:41;99734.44;;;26.86;31.09
67803;BME280;54601;51.378;-1.342;2023-06-19T12:12:08;99724.29;;;26.87;31.09
67803;BME280;54601;51.378;-1.342;2023-06-19T12:14:32;99726.74;;;26.80;31.16
67803;BME280;54601;51.378;-1.342;2023-06-19T12:16:57;99734.42;;;26.80;31.15
67803;BME280;54601;51.378;-1.342;2023-06-19T12:19:23;99727.46;;;26.86;31.08
67803;BME280;54601;51.378;-1.342;2023-06-19T12:21:48;99725.83;;;26.55;31.13
67803;BME280;54601;51.378;-1.342;2023-06-19T12:24:14;99727.36;;;26.50;31.20
67803;BME280;54601;51.378;-1.342;2023-06-19T12:26:39;99725.48;;;26.78;31.17
67803;BME280;54601;51.378;-1.342;2023-06-19T12:29:05;99724.23;;;26.76;31.23
67803;BME280;54601;51.378;-1.342;2023-06-19T12:31:30;99715.07;;;26.80;31.16
67803;BME280;54601;51.378;-1.342;2023-06-19T12:33:55;99709.70;;;26.80;31.15
67803;BME280;54601;51.378;-1.342;2023-06-19T12:36:20;99716.72;;;26.80;31.16
67803;BME280;54601;51.378;-1.342;2023-06-19T12:38:46;99717.12;;;26.56;31.13